sensor_id;sensor_type;location;lat;lon;timestamp;pressure;altitude;pressure_sealevel;temperature;humidity
39954;BME280;25631;51.516;-0.470;2023-01-10T06:58:11;101020.77;;;2.58;45.96
39954;BME280;25631;51.516;-0.470;2023-01-10T07:00:48;101013.68;;;3.22;46.15
39954;BME280;25631;51.516;-0.470;2023-01-10T07:03:24;101008.44;;;3.79;45.56
39954;BME280;25631;51.516;-0.470;2023-01-10T07:06:01;101008.51;;;3.82;45.57
39954;BME280;25631;51.516;-0.470;2023-01-10T07:08:39;101005.75;;;4.17;45.81
39954;BME280;25631;51.516;-0.470;2023-01-10T07:11:16;101000.92;;;4.17;45.69
39954;BME280;25631;51.516;-0.470;2023-01-10T07:13:52;100994.52;;;4.24;45.57
39954;BME280;25631;51.516;-0.470;2023-01-10T07:16:29;100987.35;;;4.34;45.80
39954;BME280;25631;51.516;-0.470;2023-01-10T07:19:05;100988.92;;;4.31;46.06
39954;BME280;25631;51.516;-0.470;2023-01-10T07:21:41;100987.76;;;4.29;46.06
39954;BME280;25631;51.516;-0.470;2023-01-10T07:24:18;100986.83;;;4.58;46.05
39954;BME280;25631;51.516;-0.470;2023-01-10T07:26:54;100978.29;;;4.51;46.21
39954;BME280;25631;51.516;-0.470;2023-01-10T07:29:31;100974.16;;;4.44;46.53
39954;BME280;25631;51.516;-0.470;2023-01-10T07:32:07;100971.56;;;4.38;46.62
39954;BME280;25631;51.516;-0.470;2023-01-10T07:34:44;100969.18;;;4.48;46.50
39954;BME280;25631;51.516;-0.470;2023-01-10T07:37:20;100963.59;;;4.37;46.75
39954;BME280;25631;51.516;-0.470;2023-01-10T07:39:57;100960.65;;;4.27;47.11
39954;BME280;25631;51.516;-0.470;2023-01-10T07:42:33;100955.45;;;4.68;47.00
39954;BME280;25631;51.516;-0.470;2023-01-10T07:45:10;100946.59;;;4.35;46.99
39954;BME280;25631;51.516;-0.470;2023-01-10T07:47:47;100926.45;;;4.52;47.03
39954;BME280;25631;51.516;-0.470;2023-01-10T07:50:24;100925.47;;;4.69;47.22
39954;BME280;25631;51.516;-0.470;2023-01-10T07:53:02;100923.23;;;4.60;47.33
39954;BME280;25631;51.516;-0.470;2023-01-10T07:55:38;100922.79;;;4.63;47.53
39954;BME280;25631;51.516;-0.470;2023-01-10T07:58:15;100913.12;;;4.62;47.93
39954;BME280;25631;51.516;-0.470;2023-01-10T08:00:51;100905.18;;;4.51;48.65
39954;BME280;25631;51.516;-0.470;2023-01-10T08:03:28;100899.23;;;4.41;48.67
39954;BME280;25631;51.516;-0.470;2023-01-10T08:06:07;100896.80;;;4.24;49.16
39954;BME280;25631;51.516;-0.470;2023-01-10T08:08:44;100894.74;;;4.22;49.29
39954;BME280;25631;51.516;-0.470;2023-01-10T08:11:20;100887.59;;;4.19;49.46
39954;BME280;25631;51.516;-0.470;2023-01-10T08:13:57;100882.66;;;4.35;49.42
39954;BME280;25631;51.516;-0.470;2023-01-10T08:16:33;100879.90;;;4.16;49.75
39954;BME280;25631;51.516;-0.470;2023-01-10T08:19:15;100877.23;;;4.43;49.69
39954;BME280;25631;51.516;-0.470;2023-01-10T08:21:53;100870.74;;;4.14;50.00
39954;BME280;25631;51.516;-0.470;2023-01-10T08:24:30;100864.82;;;3.88;49.95
39954;BME280;25631;51.516;-0.470;2023-01-10T08:27:06;100856.92;;;4.32;49.67
39954;BME280;25631;51.516;-0.470;2023-01-10T08:29:43;100852.55;;;4.19;49.72
39954;BME280;25631;51.516;-0.470;2023-01-10T08:32:19;100843.29;;;4.17;49.81
39954;BME280;25631;51.516;-0.470;2023-01-10T08:34:56;100842.02;;;4.09;49.76
39954;BME280;25631;51.516;-0.470;2023-01-10T08:37:32;100837.87;;;4.41;49.59
39954;BME280;25631;51.516;-0.470;2023-01-10T08:40:10;100831.81;;;4.23;49.67
39954;BME280;25631;51.516;-0.470;2023-01-10T08:42:47;100830.69;;;4.29;49.60
39954;BME280;25631;51.516;-0.470;2023-01-10T08:45:25;100829.15;;;3.77;50.13
39954;BME280;25631;51.516;-0.470;2023-01-10T08:48:02;100819.05;;;4.13;49.80
39954;BME280;25631;51.516;-0.470;2023-01-10T08:50:39;100815.25;;;4.14;49.72
39954;BME280;25631;51.516;-0.470;2023-01-10T08:53:16;100803.07;;;3.99;49.95
39954;BME280;25631;51.516;-0.470;2023-01-10T08:55:52;100800.76;;;4.17;49.94
39954;BME280;25631;51.516;-0.470;2023-01-10T08:58:29;100799.12;;;4.18;49.86
39954;BME280;25631;51.516;-0.470;2023-01-10T09:01:06;100788.50;;;4.21;50.03
39954;BME280;25631;51.516;-0.470;2023-01-10T09:03:43;100794.18;;;4.09;50.22
39954;BME280;25631;51.516;-0.470;2023-01-10T09:06:20;100788.03;;;4.13;50.15
39954;BME280;25631;51.516;-0.470;2023-01-10T09:08:56;100788.80;;;4.12;50.48
39954;BME280;25631;51.516;-0.470;2023-01-10T09:11:32;100791.82;;;3.94;50.64
39954;BME280;25631;51.516;-0.470;2023-01-10T09:14:09;100780.52;;;3.95;51.07
39954;BME280;25631;51.516;-0.470;2023-01-10T09:16:45;100768.47;;;4.14;50.97
39954;BME280;25631;51.516;-0.470;2023-01-10T09:19:22;100762.78;;;4.05;51.05
39954;BME280;25631;51.516;-0.470;2023-01-10T09:21:59;100758.34;;;4.13;51.06
39954;BME280;25631;51.516;-0.470;2023-01-10T09:24:35;100757.45;;;4.23;51.43
39954;BME280;25631;51.516;-0.470;2023-01-10T09:27:11;100757.13;;;4.15;51.43
39954;BME280;25631;51.516;-0.470;2023-01-10T09:29:48;100743.21;;;4.33;51.32
39954;BME280;25631;51.516;-0.470;2023-01-10T09:32:24;100735.71;;;4.33;51.40
39954;BME280;25631;51.516;-0.470;2023-01-10T09:35:01;100746.63;;;3.85;52.12
39954;BME280;25631;51.516;-0.470;2023-01-10T09:37:38;100738.32;;;4.40;51.53
39954;BME280;25631;51.516;-0.470;2023-01-10T09:40:15;100740.54;;;4.20;51.66
39954;BME280;25631;51.516;-0.470;2023-01-10T09:43:02;100734.36;;;4.37;51.63
39954;BME280;25631;51.516;-0.470;2023-01-10T09:45:47;100737.59;;;3.77;52.15
39954;BME280;25631;51.516;-0.470;2023-01-10T09:48:34;100720.85;;;4.32;51.63
39954;BME280;25631;51.516;-0.470;2023-01-10T09:51:22;100723.19;;;4.21;51.70
39954;BME280;25631;51.516;-0.470;2023-01-10T09:54:05;100718.67;;;4.39;51.74
39954;BME280;25631;51.516;-0.470;2023-01-10T09:56:46;100716.35;;;4.36;51.83
39954;BME280;25631;51.516;-0.470;2023-01-10T09:59:27;100709.65;;;4.26;51.68
39954;BME280;25631;51.516;-0.470;2023-01-10T10:02:16;100703.18;;;4.48;51.43
39954;BME280;25631;51.516;-0.470;2023-01-10T10:05:06;100702.63;;;4.47;51.64
39954;BME280;25631;51.516;-0.470;2023-01-10T10:07:43;100694.07;;;4.41;51.49
39954;BME280;25631;51.516;-0.470;2023-01-10T10:10:23;100683.88;;;4.39;51.62
39954;BME280;25631;51.516;-0.470;2023-01-10T10:13:10;100679.18;;;4.38;51.92
39954;BME280;25631;51.516;-0.470;2023-01-10T10:15:59;100672.19;;;5.13;51.35
39954;BME280;25631;51.516;-0.470;2023-01-10T10:18:47;100672.59;;;4.37;51.76
39954;BME280;25631;51.516;-0.470;2023-01-10T10:21:33;100662.32;;;4.60;51.56
39954;BME280;25631;51.516;-0.470;2023-01-10T10:24:24;100660.63;;;4.36;51.23
39954;BME280;25631;51.516;-0.470;2023-01-10T10:27:10;100649.84;;;5.08;51.00
39954;BME280;25631;51.516;-0.470;2023-01-10T10:30:03;100644.90;;;5.07;51.08
39954;BME280;25631;51.516;-0.470;2023-01-10T10:32:57;100635.72;;;5.16;51.21
39954;BME280;25631;51.516;-0.470;2023-01-10T10:35:39;100623.47;;;4.94;51.33
39954;BME280;25631;51.516;-0.470;2023-01-10T10:38:22;100627.51;;;5.06;51.23
39954;BME280;25631;51.516;-0.470;2023-01-10T10:41:02;100621.56;;;4.84;51.09
39954;BME280;25631;51.516;-0.470;2023-01-10T10:43:39;100614.73;;;4.93;51.12
39954;BME280;25631;51.516;-0.470;2023-01-10T10:46:17;100604.30;;;4.70;51.08
39954;BME280;25631;51.516;-0.470;2023-01-10T10:48:57;100599.69;;;4.92;51.04
39954;BME280;25631;51.516;-0.470;2023-01-10T10:51:41;100582.48;;;5.10;50.83
39954;BME280;25631;51.516;-0.470;2023-01-10T10:54:20;100581.22;;;5.05;51.07
39954;BME280;25631;51.516;-0.470;2023-01-10T10:56:57;100561.37;;;5.02;51.25
39954;BME280;25631;51.516;-0.470;2023-01-10T10:59:33;100565.52;;;4.65;51.05
39954;BME280;25631;51.516;-0.470;2023-01-10T11:02:20;100545.93;;;5.26;51.13
39954;BME280;25631;51.516;-0.470;2023-01-10T11:04:59;100523.36;;;5.05;51.36
39954;BME280;25631;51.516;-0.470;2023-01-10T11:07:37;100542.44;;;5.35;51.43
39954;BME280;25631;51.516;-0.470;2023-01-10T11:10:22;100512.34;;;5.10;51.58
39954;BME280;25631;51.516;-0.470;2023-01-10T11:13:03;100513.98;;;5.45;51.41
39954;BME280;25631;51.516;-0.470;2023-01-10T11:15:41;100514.82;;;5.36;51.68
39954;BME280;25631;51.516;-0.470;2023-01-10T11:18:20;100507.83;;;5.35;51.81
39954;BME280;25631;51.516;-0.470;2023-01-10T11:20:59;100499.12;;;5.50;51.82
39954;BME280;25631;51.516;-0.470;2023-01-10T11:23:41;100495.65;;;5.44;51.51
39954;BME280;25631;51.516;-0.470;2023-01-10T11:26:24;100494.64;;;5.81;51.98
39954;BME280;25631;51.516;-0.470;2023-01-10T11:29:06;100481.58;;;5.44;52.02
39954;BME280;25631;51.516;-0.470;2023-01-10T11:31:44;100471.95;;;5.25;52.13
39954;BME280;25631;51.516;-0.470;2023-01-10T11:34:24;100469.60;;;5.54;51.80
39954;BME280;25631;51.516;-0.470;2023-01-10T11:37:04;100461.00;;;5.21;52.24
39954;BME280;25631;51.516;-0.470;2023-01-10T11:39:42;100460.35;;;5.56;52.16
39954;BME280;25631;51.516;-0.470;2023-01-10T11:42:26;100452.71;;;5.45;52.28
39954;BME280;25631;51.516;-0.470;2023-01-10T11:45:34;100440.43;;;5.79;51.87
39954;BME280;25631;51.516;-0.470;2023-01-10T11:48:19;100439.69;;;6.25;51.88
39954;BME280;25631;51.516;-0.470;2023-01-10T11:50:58;100427.18;;;5.77;52.06
39954;BME280;25631;51.516;-0.470;2023-01-10T11:53:38;100428.59;;;5.81;52.22
39954;BME280;25631;51.516;-0.470;2023-01-10T11:56:23;100417.29;;;5.97;52.33
39954;BME280;25631;51.516;-0.470;2023-01-10T11:59:08;100408.76;;;5.81;52.33
39954;BME280;25631;51.516;-0.470;2023-01-10T12:01:51;100378.83;;;6.12;52.07
39954;BME280;25631;51.516;-0.470;2023-01-10T12:04:31;100401.42;;;6.32;52.15
39954;BME280;25631;51.516;-0.470;2023-01-10T12:07:10;100404.00;;;5.38;52.03
39954;BME280;25631;51.516;-0.470;2023-01-10T12:09:54;100397.34;;;5.77;52.48
39954;BME280;25631;51.516;-0.470;2023-01-10T12:12:34;100394.48;;;6.21;52.23
39954;BME280;25631;51.516;-0.470;2023-01-10T12:15:27;100385.18;;;5.93;52.03
39954;BME280;25631;51.516;-0.470;2023-01-10T12:18:04;100383.40;;;6.58;52.46
39954;BME280;25631;51.516;-0.470;2023-01-10T12:20:46;100379.47;;;6.43;52.28
39954;BME280;25631;51.516;-0.470;2023-01-10T12:23:24;100369.68;;;6.65;52.62
39954;BME280;25631;51.516;-0.470;2023-01-10T12:26:02;100363.12;;;6.33;52.50
39954;BME280;25631;51.516;-0.470;2023-01-10T12:28:43;100356.41;;;6.76;52.70
39954;BME280;25631;51.516;-0.470;2023-01-10T12:31:22;100345.13;;;6.31;52.73
39954;BME280;25631;51.516;-0.470;2023-01-10T12:34:03;100341.73;;;6.23;52.97
39954;BME280;25631;51.516;-0.470;2023-01-10T12:36:50;100337.52;;;6.57;52.83
39954;BME280;25631;51.516;-0.470;2023-01-10T12:39:32;100331.08;;;6.71;52.81
39954;BME280;25631;51.516;-0.470;2023-01-10T12:42:16;100326.33;;;6.74;52.95
39954;BME280;25631;51.516;-0.470;2023-01-10T12:45:03;100321.71;;;6.82;52.89
39954;BME280;25631;51.516;-0.470;2023-01-10T12:47:51;100313.31;;;6.85;52.95
39954;BME280;25631;51.516;-0.470;2023-01-10T12:50:33;100306.88;;;7.21;52.78
39954;BME280;25631;51.516;-0.470;2023-01-10T12:53:27;100298.50;;;7.30;52.63
39954;BME280;25631;51.516;-0.470;2023-01-10T12:56:08;100296.13;;;7.16;52.79
39954;BME280;25631;51.516;-0.470;2023-01-10T12:58:49;100296.77;;;7.09;52.95
39954;BME280;25631;51.516;-0.470;2023-01-10T13:01:30;100290.92;;;7.32;52.91
39954;BME280;25631;51.516;-0.470;2023-01-10T13:04:10;100291.05;;;7.56;52.99
39954;BME280;25631;51.516;-0.470;2023-01-10T13:06:49;100281.17;;;7.27;53.29
39954;BME280;25631;51.516;-0.470;2023-01-10T13:09:28;100273.81;;;7.73;53.24
39954;BME280;25631;51.516;-0.470;2023-01-10T13:12:08;100272.44;;;7.44;53.36
39954;BME280;25631;51.516;-0.470;2023-01-10T13:14:52;100273.32;;;7.84;53.60
39954;BME280;25631;51.516;-0.470;2023-01-10T13:17:38;100267.45;;;7.80;53.28
39954;BME280;25631;51.516;-0.470;2023-01-10T13:20:28;100258.41;;;7.87;53.28
39954;BME280;25631;51.516;-0.470;2023-01-10T13:23:20;100255.47;;;8.02;53.27
39954;BME280;25631;51.516;-0.470;2023-01-10T13:26:01;100255.28;;;8.17;53.16
39954;BME280;25631;51.516;-0.470;2023-01-10T13:28:42;100245.07;;;8.46;53.09
39954;BME280;25631;51.516;-0.470;2023-01-10T13:31:30;100246.92;;;8.18;52.89
39954;BME280;25631;51.516;-0.470;2023-01-10T13:34:10;100248.39;;;8.31;52.70
39954;BME280;25631;51.516;-0.470;2023-01-10T13:36:51;100235.55;;;8.72;52.34
39954;BME280;25631;51.516;-0.470;2023-01-10T13:39:33;100234.28;;;8.51;52.05
39954;BME280;25631;51.516;-0.470;2023-01-10T13:42:36;100239.05;;;8.53;52.12
39954;BME280;25631;51.516;-0.470;2023-01-10T13:45:17;100228.57;;;8.15;52.19
39954;BME280;25631;51.516;-0.470;2023-01-10T13:48:01;100222.95;;;8.24;52.09
39954;BME280;25631;51.516;-0.470;2023-01-10T13:52:27;100223.59;;;8.32;52.32
39954;BME280;25631;51.516;-0.470;2023-01-10T13:55:24;100217.14;;;8.76;51.57
39954;BME280;25631;51.516;-0.470;2023-01-10T13:58:04;100219.67;;;8.95;51.25
39954;BME280;25631;51.516;-0.470;2023-01-10T14:01:22;100207.27;;;8.39;51.49
39954;BME280;25631;51.516;-0.470;2023-01-10T14:03:59;100205.71;;;8.49;51.53
39954;BME280;25631;51.516;-0.470;2023-01-10T14:06:37;100211.42;;;8.33;51.23
39954;BME280;25631;51.516;-0.470;2023-01-10T14:09:34;100216.70;;;9.08;50.64
39954;BME280;25631;51.516;-0.470;2023-01-10T14:12:24;100212.74;;;8.96;50.60
39954;BME280;25631;51.516;-0.470;2023-01-10T14:15:06;100205.21;;;8.88;50.69
39954;BME280;25631;51.516;-0.470;2023-01-10T14:17:43;100200.61;;;8.88;50.53
39954;BME280;25631;51.516;-0.470;2023-01-10T14:20:20;100199.26;;;9.13;50.71
39954;BME280;25631;51.516;-0.470;2023-01-10T14:23:00;100203.24;;;8.43;51.20
39954;BME280;25631;51.516;-0.470;2023-01-10T14:25:38;100207.32;;;8.68;50.94
39954;BME280;25631;51.516;-0.470;2023-01-10T14:28:20;100207.22;;;8.65;50.66
39954;BME280;25631;51.516;-0.470;2023-01-10T14:31:02;100210.71;;;9.06;50.49
39954;BME280;25631;51.516;-0.470;2023-01-10T14:33:41;100207.21;;;9.19;50.56
39954;BME280;25631;51.516;-0.470;2023-01-10T14:36:21;100208.24;;;8.89;50.50
39954;BME280;25631;51.516;-0.470;2023-01-10T14:39:03;100208.00;;;8.98;50.35
39954;BME280;25631;51.516;-0.470;2023-01-10T14:41:43;100216.92;;;9.19;50.47
39954;BME280;25631;51.516;-0.470;2023-01-10T14:44:25;100210.04;;;9.13;50.46
39954;BME280;25631;51.516;-0.470;2023-01-10T14:47:02;100208.43;;;8.95;50.76
39954;BME280;25631;51.516;-0.470;2023-01-10T14:49:48;100190.42;;;9.18;50.46
39954;BME280;25631;51.516;-0.470;2023-01-10T14:52:26;100202.57;;;9.04;50.76
39954;BME280;25631;51.516;-0.470;2023-01-10T14:55:09;100206.77;;;9.25;50.57
39954;BME280;25631;51.516;-0.470;2023-01-10T14:57:55;100201.50;;;9.22;50.51
39954;BME280;25631;51.516;-0.470;2023-01-10T15:00:33;100204.71;;;9.20;50.23
39954;BME280;25631;51.516;-0.470;2023-01-10T15:03:17;100211.11;;;9.00;50.65
39954;BME280;25631;51.516;-0.470;2023-01-10T15:05:56;100206.06;;;9.19;50.51
39954;BME280;25631;51.516;-0.470;2023-01-10T15:08:33;100197.03;;;9.15;50.43
39954;BME280;25631;51.516;-0.470;2023-01-10T15:11:11;100211.75;;;8.99;50.64
39954;BME280;25631;51.516;-0.470;2023-01-10T15:13:51;100202.08;;;8.94;50.68
39954;BME280;25631;51.516;-0.470;2023-01-10T15:16:29;100205.54;;;8.86;50.86
39954;BME280;25631;51.516;-0.470;2023-01-10T15:19:10;100197.15;;;9.15;50.53
39954;BME280;25631;51.516;-0.470;2023-01-10T15:21:49;100197.08;;;8.99;50.74
39954;BME280;25631;51.516;-0.470;2023-01-10T15:24:31;100200.86;;;9.10;50.57
39954;BME280;25631;51.516;-0.470;2023-01-10T15:27:13;100201.24;;;9.29;50.40
39954;BME280;25631;51.516;-0.470;2023-01-10T15:29:50;100199.67;;;9.10;50.44
39954;BME280;25631;51.516;-0.470;2023-01-10T15:32:34;100198.91;;;9.16;50.37
39954;BME280;25631;51.516;-0.470;2023-01-10T15:35:12;100189.51;;;9.06;50.52
39954;BME280;25631;51.516;-0.470;2023-01-10T15:37:53;100189.93;;;9.08;50.48
39954;BME280;25631;51.516;-0.470;2023-01-10T15:40:31;100185.80;;;8.90;50.73
39954;BME280;25631;51.516;-0.470;2023-01-10T15:43:11;100187.94;;;9.27;50.59
39954;BME280;25631;51.516;-0.470;2023-01-10T15:45:48;100187.35;;;9.14;50.46
39954;BME280;25631;51.516;-0.470;2023-01-10T15:48:28;100176.49;;;9.00;50.62
39954;BME280;25631;51.516;-0.470;2023-01-10T15:51:13;100176.23;;;8.75;51.01
39954;BME280;25631;51.516;-0.470;2023-01-10T15:53:53;100166.61;;;8.90;50.72
39954;BME280;25631;51.516;-0.470;2023-01-10T15:56:33;100152.27;;;9.00;50.67
39954;BME280;25631;51.516;-0.470;2023-01-10T15:59:21;100148.92;;;8.98;50.86
39954;BME280;25631;51.516;-0.470;2023-01-10T16:02:04;100154.03;;;8.80;50.67
39954;BME280;25631;51.516;-0.470;2023-01-10T16:04:42;100153.11;;;8.93;50.45
39954;BME280;25631;51.516;-0.470;2023-01-10T16:07:22;100140.80;;;8.79;50.53
39954;BME280;25631;51.516;-0.470;2023-01-10T16:10:03;100138.05;;;9.08;50.51
39954;BME280;25631;51.516;-0.470;2023-01-10T16:12:41;100137.10;;;8.97;50.63
39954;BME280;25631;51.516;-0.470;2023-01-10T16:15:20;100128.27;;;8.40;50.83
39954;BME280;25631;51.516;-0.470;2023-01-10T16:17:57;100124.34;;;8.76;50.29
39954;BME280;25631;51.516;-0.470;2023-01-10T16:20:35;100124.44;;;9.10;50.18
39954;BME280;25631;51.516;-0.470;2023-01-10T16:23:16;100122.63;;;9.03;50.25
39954;BME280;25631;51.516;-0.470;2023-01-10T16:25:56;100125.12;;;8.56;50.40
39954;BME280;25631;51.516;-0.470;2023-01-10T16:28:33;100126.23;;;9.04;50.13
39954;BME280;25631;51.516;-0.470;2023-01-10T16:31:11;100118.88;;;8.85;50.07
39954;BME280;25631;51.516;-0.470;2023-01-10T16:33:48;100123.90;;;9.01;49.89
39954;BME280;25631;51.516;-0.470;2023-01-10T16:36:24;100119.83;;;8.87;49.78
39954;BME280;25631;51.516;-0.470;2023-01-10T16:39:05;100127.74;;;9.08;49.63
39954;BME280;25631;51.516;-0.470;2023-01-10T16:41:43;100118.66;;;8.77;49.88
39954;BME280;25631;51.516;-0.470;2023-01-10T16:44:20;100111.63;;;8.37;50.38
39954;BME280;25631;51.516;-0.470;2023-01-10T16:46:57;100114.99;;;8.81;49.91
39954;BME280;25631;51.516;-0.470;2023-01-10T16:49:34;100105.98;;;8.95;49.85
39954;BME280;25631;51.516;-0.470;2023-01-10T16:52:12;100100.84;;;9.21;49.69
39954;BME280;25631;51.516;-0.470;2023-01-10T16:54:48;100103.37;;;8.89;49.92
39954;BME280;25631;51.516;-0.470;2023-01-10T16:57:25;100087.54;;;8.97;49.81
39954;BME280;25631;51.516;-0.470;2023-01-10T17:00:02;100081.49;;;8.69;49.93
39954;BME280;25631;51.516;-0.470;2023-01-10T17:02:40;100079.32;;;9.03;49.58
39954;BME280;25631;51.516;-0.470;2023-01-10T17:05:18;100076.98;;;8.39;50.24
39954;BME280;25631;51.516;-0.470;2023-01-10T17:07:54;100077.77;;;8.99;49.60
39954;BME280;25631;51.516;-0.470;2023-01-10T17:10:33;100070.68;;;9.13;49.42
39954;BME280;25631;51.516;-0.470;2023-01-10T17:13:11;100074.91;;;9.18;49.14
39954;BME280;25631;51.516;-0.470;2023-01-10T17:15:48;100065.20;;;9.03;49.38
39954;BME280;25631;51.516;-0.470;2023-01-10T17:18:26;100077.90;;;8.84;49.62
39954;BME280;25631;51.516;-0.470;2023-01-10T17:21:03;100063.91;;;8.85;49.56
39954;BME280;25631;51.516;-0.470;2023-01-10T17:23:40;100058.84;;;8.84;49.44
39954;BME280;25631;51.516;-0.470;2023-01-10T17:26:17;100053.13;;;8.97;49.59
39954;BME280;25631;51.516;-0.470;2023-01-10T17:28:54;100052.67;;;8.54;50.04
39954;BME280;25631;51.516;-0.470;2023-01-10T17:31:31;100053.95;;;8.39;50.30
39954;BME280;25631;51.516;-0.470;2023-01-10T17:34:07;100060.52;;;8.57;50.29
39954;BME280;25631;51.516;-0.470;2023-01-10T17:36:44;100042.01;;;8.61;50.40
39954;BME280;25631;51.516;-0.470;2023-01-10T17:39:20;100036.41;;;8.71;49.99
39954;BME280;25631;51.516;-0.470;2023-01-10T17:41:57;100031.07;;;9.00;49.90
39954;BME280;25631;51.516;-0.470;2023-01-10T17:44:34;100012.12;;;8.92;50.00
39954;BME280;25631;51.516;-0.470;2023-01-10T17:47:10;100016.90;;;8.91;50.07
39954;BME280;25631;51.516;-0.470;2023-01-10T17:49:47;100022.20;;;8.55;50.40
39954;BME280;25631;51.516;-0.470;2023-01-10T17:52:23;100035.83;;;8.59;50.70
39954;BME280;25631;51.516;-0.470;2023-01-10T17:55:00;100026.64;;;8.86;50.33
39954;BME280;25631;51.516;-0.470;2023-01-10T17:57:36;100030.99;;;8.90;50.25
39954;BME280;25631;51.516;-0.470;2023-01-10T18:00:14;100024.59;;;9.15;50.28
39954;BME280;25631;51.516;-0.470;2023-01-10T18:02:51;100023.43;;;8.72;50.87
39954;BME280;25631;51.516;-0.470;2023-01-10T18:05:28;100016.70;;;8.54;51.02
39954;BME280;25631;51.516;-0.470;2023-01-10T18:08:04;100018.82;;;8.96;50.79
39954;BME280;25631;51.516;-0.470;2023-01-10T18:10:41;100012.58;;;9.14;50.69
39954;BME280;25631;51.516;-0.470;2023-01-10T18:13:18;100014.11;;;8.41;51.47
39954;BME280;25631;51.516;-0.470;2023-01-10T18:15:55;100014.59;;;8.72;51.14
39954;BME280;25631;51.516;-0.470;2023-01-10T18:18:31;100011.00;;;9.10;51.24
39954;BME280;25631;51.516;-0.470;2023-01-10T18:21:12;100017.58;;;8.74;51.43
39954;BME280;25631;51.516;-0.470;2023-01-10T18:23:53;100009.33;;;9.04;51.38
39954;BME280;25631;51.516;-0.470;2023-01-10T18:26:30;99997.58;;;8.85;51.25
39954;BME280;25631;51.516;-0.470;2023-01-10T18:29:06;99999.75;;;8.91;51.36
39954;BME280;25631;51.516;-0.470;2023-01-10T18:31:43;100003.82;;;8.99;51.56
39954;BME280;25631;51.516;-0.470;2023-01-10T18:34:20;100002.02;;;8.81;51.39
39954;BME280;25631;51.516;-0.470;2023-01-10T18:36:56;99995.63;;;8.87;51.70
39954;BME280;25631;51.516;-0.470;2023-01-10T18:39:32;99991.99;;;8.76;51.68
39954;BME280;25631;51.516;-0.470;2023-01-10T18:42:09;99991.60;;;9.04;51.60
39954;BME280;25631;51.516;-0.470;2023-01-10T18:44:46;99988.77;;;8.96;51.66
39954;BME280;25631;51.516;-0.470;2023-01-10T18:47:22;99992.81;;;8.99;51.60
39954;BME280;25631;51.516;-0.470;2023-01-10T18:49:59;99985.72;;;8.87;51.45
39954;BME280;25631;51.516;-0.470;2023-01-10T18:52:35;99985.14;;;8.94;51.40
39954;BME280;25631;51.516;-0.470;2023-01-10T18:55:12;99979.19;;;8.94;51.40
39954;BME280;25631;51.516;-0.470;2023-01-10T18:57:48;99969.42;;;8.89;51.52
39954;BME280;25631;51.516;-0.470;2023-01-10T19:00:25;99969.17;;;9.10;51.40
39954;BME280;25631;51.516;-0.470;2023-01-10T19:03:01;99973.71;;;8.69;51.90
39954;BME280;25631;51.516;-0.470;2023-01-10T19:05:38;99968.70;;;8.83;51.59
39954;BME280;25631;51.516;-0.470;2023-01-10T19:08:15;99961.54;;;8.95;51.43
39954;BME280;25631;51.516;-0.470;2023-01-10T19:10:52;99955.71;;;9.06;51.25
39954;BME280;25631;51.516;-0.470;2023-01-10T19:13:29;99953.93;;;8.92;51.45
39954;BME280;25631;51.516;-0.470;2023-01-10T19:16:09;99951.61;;;8.98;51.39
39954;BME280;25631;51.516;-0.470;2023-01-10T19:18:48;99950.38;;;8.93;51.47
39954;BME280;25631;51.516;-0.470;2023-01-10T19:21:27;99950.89;;;9.05;51.15
39954;BME280;25631;51.516;-0.470;2023-01-10T19:24:06;99956.71;;;9.23;51.19
39954;BME280;25631;51.516;-0.470;2023-01-10T19:26:43;99955.58;;;8.74;51.63
39954;BME280;25631;51.516;-0.470;2023-01-10T19:29:19;99954.72;;;9.07;51.36
39954;BME280;25631;51.516;-0.470;2023-01-10T19:31:56;99957.74;;;8.95;51.50
39954;BME280;25631;51.516;-0.470;2023-01-10T19:34:33;99954.36;;;8.94;51.49
39954;BME280;25631;51.516;-0.470;2023-01-10T19:37:10;99960.13;;;8.86;51.70
39954;BME280;25631;51.516;-0.470;2023-01-10T19:39:46;99956.71;;;9.38;51.30
39954;BME280;25631;51.516;-0.470;2023-01-10T19:42:22;99950.38;;;9.16;51.34
39954;BME280;25631;51.516;-0.470;2023-01-10T19:44:59;99953.84;;;9.02;51.46
39954;BME280;25631;51.516;-0.470;2023-01-10T19:47:35;99954.86;;;9.17;51.45
39954;BME280;25631;51.516;-0.470;2023-01-10T19:50:12;99951.17;;;9.22;51.42
39954;BME280;25631;51.516;-0.470;2023-01-10T19:52:49;99949.76;;;9.16;51.51
39954;BME280;25631;51.516;-0.470;2023-01-10T19:55:25;99939.27;;;9.18;51.62
39954;BME280;25631;51.516;-0.470;2023-01-10T19:58:02;99936.77;;;8.88;51.91
39954;BME280;25631;51.516;-0.470;2023-01-10T20:00:39;99939.45;;;8.87;52.20
39954;BME280;25631;51.516;-0.470;2023-01-10T20:03:16;99937.49;;;9.02;52.07
39954;BME280;25631;51.516;-0.470;2023-01-10T20:05:52;99928.08;;;8.86;51.98
39954;BME280;25631;51.516;-0.470;2023-01-10T20:08:29;99924.99;;;9.42;51.82
39954;BME280;25631;51.516;-0.470;2023-01-10T20:11:06;99941.56;;;8.62;52.48
39954;BME280;25631;51.516;-0.470;2023-01-10T20:13:43;99930.34;;;8.90;52.12
39954;BME280;25631;51.516;-0.470;2023-01-10T20:16:21;99945.06;;;9.05;51.96
39954;BME280;25631;51.516;-0.470;2023-01-10T20:18:58;99935.24;;;8.90;52.17
39954;BME280;25631;51.516;-0.470;2023-01-10T20:21:35;99943.31;;;9.24;51.81
39954;BME280;25631;51.516;-0.470;2023-01-10T20:24:14;99929.94;;;9.15;51.84
39954;BME280;25631;51.516;-0.470;2023-01-10T20:26:50;99926.98;;;8.88;52.20
39954;BME280;25631;51.516;-0.470;2023-01-10T20:29:27;99919.77;;;9.03;52.00
39954;BME280;25631;51.516;-0.470;2023-01-10T20:32:04;99931.01;;;9.04;51.94
39954;BME280;25631;51.516;-0.470;2023-01-10T20:34:41;99934.85;;;9.29;51.63
39954;BME280;25631;51.516;-0.470;2023-01-10T20:37:17;99937.20;;;9.06;51.87
39954;BME280;25631;51.516;-0.470;2023-01-10T20:39:54;99943.20;;;9.25;51.47
39954;BME280;25631;51.516;-0.470;2023-01-10T20:42:31;99938.29;;;9.14;51.54
39954;BME280;25631;51.516;-0.470;2023-01-10T20:45:08;99939.89;;;9.14;51.64
39954;BME280;25631;51.516;-0.470;2023-01-10T20:47:44;99931.87;;;9.37;51.30
39954;BME280;25631;51.516;-0.470;2023-01-10T20:50:21;99928.37;;;9.15;51.54
39954;BME280;25631;51.516;-0.470;2023-01-10T20:52:57;99914.97;;;9.29;51.21
39954;BME280;25631;51.516;-0.470;2023-01-10T20:55:34;99927.06;;;9.42;51.14